Pays
Station

 

Conditions  météo  pour  Monastir-Skanes  -  Tunisie    Tunisie

  
20 °C
    
 
 

METAR pour Monastir-Skanes :

DTTM 160900Z 05004KT 360V100 8000 FEW020 20/13 Q1017

 

Voici le bulletin pour Monastir-Skanes - Tunisie.
 
Le bulletin a été fait il y a 74 heures et 27 minutes, à 09:00 UTC .
Le vent soufflait à la vitesse de 2.1 mètres par seconde de Nord-est (050°), variant entre Nord (360°) et Est (100°).
 
La température était de 20 °C, avec un point de rosée à 13 °C.
La pression atmosphérique était de 1017 hPa.
L'humidité relative était de 64.1%.
 
Il y avait 1 à 2/8ème de nébulosité à une hauteur de 610 mètres.
 
La visibilité globale était de 8.0 kilomètres.
 

 
 
 

Pays :   A   B   C   D   E   F   G   H   I   J   K   L   M   N   O   P   Q   R   S   T   U   V   W   Y   Z

 

Partenaires :  Info Météo avec Met'info
Météo Marine avec MeteoMarine.net
Infos Site  |  Infos Légales  |  Crédits  |  Confidentialité
Contactez-nous  |  Ajouter aux favoris
© 2013-2018 METAR - Tous droits réservés